createdAt,value
2022-09-13T00:01:01.679Z,5.85
2022-09-13T00:03:28.573Z,5.40
2022-09-13T00:05:55.517Z,5.55
2022-09-13T00:08:22.350Z,4.80
2022-09-13T00:10:49.191Z,6.30
2022-09-13T00:13:17.281Z,7.50
2022-09-13T00:15:46.071Z,6.70
2022-09-13T00:18:13.121Z,6.43
2022-09-13T00:20:40.113Z,6.45
2022-09-13T00:23:06.636Z,6.00
2022-09-13T00:25:33.326Z,5.95
2022-09-13T00:27:59.873Z,5.82
2022-09-13T00:30:26.414Z,6.35
2022-09-13T00:32:52.983Z,6.43
2022-09-13T00:35:19.522Z,6.13
2022-09-13T00:37:46.185Z,5.55
2022-09-13T00:40:12.754Z,6.20
2022-09-13T00:42:39.409Z,5.45
2022-09-13T00:45:12.236Z,6.07
2022-09-13T00:47:40.664Z,5.40
2022-09-13T00:50:22.627Z,6.00
2022-09-13T00:53:02.958Z,5.18
2022-09-13T00:55:35.762Z,5.80
2022-09-13T00:58:08.657Z,5.50
2022-09-13T01:00:36.456Z,5.85
2022-09-13T01:03:06.890Z,5.43
2022-09-13T01:05:38.916Z,5.55
2022-09-13T01:08:12.726Z,5.25
2022-09-13T01:10:41.770Z,5.40
2022-09-13T01:13:18.864Z,5.93
2022-09-13T01:15:46.448Z,5.78
2022-09-13T01:18:13.278Z,6.57
2022-09-13T01:20:53.958Z,6.80
2022-09-13T01:23:57.591Z,5.72
2022-09-13T01:26:42.577Z,6.55
2022-09-13T01:29:37.087Z,5.88
2022-09-13T01:32:27.912Z,6.30
2022-09-13T01:35:00.302Z,6.50
2022-09-13T01:37:42.392Z,5.80
2022-09-13T01:40:17.385Z,5.70
2022-09-13T01:42:47.255Z,6.47
2022-09-13T01:45:37.053Z,5.68
2022-09-13T01:48:14.218Z,6.05
2022-09-13T01:50:47.623Z,5.50
2022-09-13T01:53:32.796Z,5.55
2022-09-13T01:56:05.805Z,6.53
2022-09-13T01:58:42.061Z,5.57
2022-09-13T02:01:21.267Z,6.05
2022-09-13T02:04:17.996Z,6.10
2022-09-13T02:07:01.114Z,5.85
2022-09-13T02:09:31.323Z,5.90
2022-09-13T02:12:06.397Z,5.88
2022-09-13T02:14:40.157Z,5.95
2022-09-13T02:17:18.585Z,5.68
2022-09-13T02:19:51.720Z,6.32
2022-09-13T02:22:23.761Z,6.18
2022-09-13T02:24:57.428Z,6.07
2022-09-13T02:27:32.369Z,5.95
2022-09-13T02:30:04.778Z,6.22
2022-09-13T02:32:36.183Z,6.45
2022-09-13T02:35:10.941Z,6.25
2022-09-13T02:37:40.166Z,6.20
2022-09-13T02:40:14.141Z,7.30
2022-09-13T02:42:50.368Z,6.13
2022-09-13T02:45:18.527Z,5.72
2022-09-13T02:47:58.176Z,6.25
2022-09-13T02:50:33.513Z,5.00
2022-09-13T02:53:18.315Z,5.90
2022-09-13T02:56:00.019Z,6.55
2022-09-13T02:58:42.927Z,6.13
2022-09-13T03:01:09.654Z,6.72
2022-09-13T03:03:36.589Z,5.97
2022-09-13T03:06:03.644Z,5.45
2022-09-13T03:08:30.668Z,5.75
2022-09-13T03:11:07.879Z,5.55
2022-09-13T03:14:19.107Z,6.50
2022-09-13T03:16:48.415Z,5.90
2022-09-13T03:19:29.752Z,6.88
2022-09-13T03:22:38.062Z,6.25
2022-09-13T03:25:12.656Z,6.07
2022-09-13T03:27:52.822Z,6.38
2022-09-13T03:30:19.900Z,6.53
2022-09-13T03:32:50.967Z,6.60
2022-09-13T03:35:20.838Z,7.10
2022-09-13T03:37:53.634Z,6.90
2022-09-13T03:40:45.755Z,6.25
2022-09-13T03:43:25.932Z,5.43
2022-09-13T03:45:57.075Z,6.63
2022-09-13T03:48:24.044Z,7.05
2022-09-13T03:50:50.780Z,6.68
2022-09-13T03:53:23.379Z,6.53
2022-09-13T03:55:50.027Z,7.35
2022-09-13T03:58:19.344Z,6.80
2022-09-13T04:00:46.332Z,7.10
2022-09-13T04:03:14.245Z,7.32
2022-09-13T04:05:40.913Z,6.50
2022-09-13T04:08:08.542Z,7.10
2022-09-13T04:10:38.824Z,7.05
2022-09-13T04:13:05.419Z,6.25
2022-09-13T04:15:32.062Z,6.60
2022-09-13T04:17:58.722Z,6.72
2022-09-13T04:20:25.942Z,6.07
2022-09-13T04:22:53.437Z,6.72
2022-09-13T04:25:22.175Z,5.85
2022-09-13T04:27:49.336Z,7.00
2022-09-13T04:30:15.953Z,6.63
2022-09-13T04:32:44.236Z,6.90
2022-09-13T04:35:11.873Z,6.63
2022-09-13T04:37:39.057Z,6.72
2022-09-13T04:40:10.038Z,6.30
2022-09-13T04:42:36.757Z,6.82
2022-09-13T04:45:06.389Z,7.45
2022-09-13T04:47:33.272Z,7.57
2022-09-13T04:49:59.758Z,7.75
2022-09-13T04:52:26.379Z,8.18
2022-09-13T04:54:52.875Z,7.55
2022-09-13T04:57:19.490Z,7.35
2022-09-13T04:59:46.049Z,7.43
2022-09-13T05:02:12.620Z,6.78
2022-09-13T05:04:39.133Z,7.60
2022-09-13T05:07:05.749Z,7.20
2022-09-13T05:09:32.279Z,7.60
2022-09-13T05:11:58.828Z,6.78
2022-09-13T05:14:25.463Z,7.47
2022-09-13T05:16:52.337Z,7.20
2022-09-13T05:19:18.886Z,7.78
2022-09-13T05:21:45.569Z,6.65
2022-09-13T05:24:12.247Z,8.43
2022-09-13T05:26:39.048Z,7.15
2022-09-13T05:29:05.691Z,7.60
2022-09-13T05:31:35.777Z,8.20
2022-09-13T05:34:14.576Z,7.82
2022-09-13T05:36:41.647Z,8.63
2022-09-13T05:39:29.736Z,7.55
2022-09-13T05:42:00.285Z,9.40
2022-09-13T05:44:26.809Z,7.35
2022-09-13T05:46:53.311Z,6.75
2022-09-13T05:49:19.853Z,7.00
2022-09-13T05:51:46.381Z,9.13
2022-09-13T05:54:13.354Z,7.57
2022-09-13T05:56:40.084Z,6.82
2022-09-13T05:59:06.859Z,7.05
2022-09-13T06:01:33.379Z,6.80
2022-09-13T06:04:00.060Z,7.57
2022-09-13T06:06:27.575Z,8.52
2022-09-13T06:08:57.836Z,7.47
2022-09-13T06:11:26.309Z,6.70
2022-09-13T06:13:53.685Z,7.30
2022-09-13T06:16:20.626Z,7.22
2022-09-13T06:18:47.196Z,6.63
2022-09-13T06:21:19.849Z,6.75
2022-09-13T06:23:48.104Z,6.28
2022-09-13T06:26:16.892Z,6.50
2022-09-13T06:28:43.663Z,6.75
2022-09-13T06:31:13.295Z,6.93
2022-09-13T06:33:42.565Z,7.05
2022-09-13T06:36:19.878Z,7.32
2022-09-13T06:38:48.903Z,6.97
2022-09-13T06:41:18.824Z,7.65
2022-09-13T06:43:46.016Z,6.97
2022-09-13T06:46:21.538Z,8.02
2022-09-13T06:48:51.172Z,6.73
2022-09-13T06:51:20.156Z,8.13
2022-09-13T06:53:48.516Z,7.63
2022-09-13T06:56:21.003Z,7.45
2022-09-13T06:58:50.017Z,6.28
2022-09-13T07:01:33.380Z,7.03
2022-09-13T07:04:05.907Z,6.72
2022-09-13T07:06:35.228Z,6.55
2022-09-13T07:09:04.505Z,5.72
2022-09-13T07:11:33.953Z,5.93
2022-09-13T07:16:30.039Z,5.82
2022-09-13T07:19:01.784Z,7.10
2022-09-13T07:21:29.128Z,5.90
2022-09-13T07:23:56.978Z,5.90
2022-09-13T07:26:24.087Z,5.63
2022-09-13T07:28:53.939Z,5.13
2022-09-13T07:31:44.777Z,4.40
2022-09-13T07:34:16.656Z,4.90
2022-09-13T07:36:43.591Z,4.55
2022-09-13T07:39:14.983Z,4.78
2022-09-13T07:41:42.492Z,4.70
2022-09-13T07:44:13.024Z,4.90
2022-09-13T07:46:41.660Z,4.55
2022-09-13T07:49:08.368Z,4.37
2022-09-13T07:51:39.689Z,4.30
2022-09-13T07:54:12.212Z,4.60
2022-09-13T07:56:40.903Z,4.70
2022-09-13T07:59:12.610Z,4.60
2022-09-13T08:01:41.937Z,3.85
2022-09-13T08:06:40.823Z,4.40
2022-09-13T08:09:09.509Z,4.95
2022-09-13T08:11:40.274Z,3.97
2022-09-13T08:14:09.963Z,4.47
2022-09-13T08:16:36.799Z,4.85
2022-09-13T08:19:04.721Z,4.65
2022-09-13T08:21:36.960Z,4.55
2022-09-13T08:24:05.312Z,4.18
2022-09-13T08:26:33.577Z,4.53
2022-09-13T08:29:02.470Z,4.30
2022-09-13T08:31:30.045Z,4.20
2022-09-13T08:33:57.708Z,3.92
2022-09-13T08:36:25.412Z,4.28
2022-09-13T08:38:54.714Z,4.18
2022-09-13T08:41:43.839Z,3.80
2022-09-13T08:44:23.809Z,3.97
2022-09-13T08:46:51.076Z,4.13
2022-09-13T08:49:26.260Z,4.35
2022-09-13T08:52:12.907Z,4.03
2022-09-13T08:54:39.390Z,4.05
2022-09-13T08:57:53.231Z,4.20
2022-09-13T09:00:43.582Z,3.53
2022-09-13T09:03:19.627Z,3.72
2022-09-13T09:05:49.307Z,4.18
2022-09-13T09:08:31.259Z,3.72
2022-09-13T09:11:02.850Z,4.07
2022-09-13T09:13:35.251Z,4.00
2022-09-13T09:16:16.964Z,4.00
2022-09-13T09:18:46.151Z,3.92
2022-09-13T09:21:21.964Z,3.47
2022-09-13T09:23:54.234Z,3.65
2022-09-13T09:26:20.811Z,4.22
2022-09-13T09:29:25.659Z,3.38
2022-09-13T09:32:09.394Z,3.72
2022-09-13T09:35:00.199Z,3.60
2022-09-13T09:37:29.904Z,3.20
2022-09-13T09:40:07.788Z,3.30
2022-09-13T09:42:44.636Z,3.35
2022-09-13T09:45:27.817Z,3.00
2022-09-13T09:47:56.780Z,3.28
2022-09-13T09:50:31.031Z,3.33
2022-09-13T09:53:08.710Z,3.05
2022-09-13T09:55:46.903Z,2.55
2022-09-13T09:58:16.979Z,2.90
2022-09-13T10:00:58.063Z,3.15
2022-09-13T10:03:27.776Z,2.90
2022-09-13T10:06:05.076Z,2.90
2022-09-13T10:08:35.283Z,3.45
2022-09-13T10:11:02.207Z,3.20
2022-09-13T10:13:32.010Z,3.13
2022-09-13T10:16:02.912Z,3.13
2022-09-13T10:18:49.945Z,3.08
2022-09-13T10:21:19.364Z,3.50
2022-09-13T10:23:47.471Z,3.38
2022-09-13T10:26:19.201Z,3.22
2022-09-13T10:28:56.801Z,3.17
2022-09-13T10:31:30.484Z,3.10
2022-09-13T10:34:36.034Z,3.10
2022-09-13T10:37:12.767Z,2.78
2022-09-13T10:40:09.715Z,3.20
2022-09-13T10:42:36.648Z,2.85
2022-09-13T10:45:08.932Z,2.70
2022-09-13T10:47:45.630Z,3.10
2022-09-13T10:50:24.463Z,3.10
2022-09-13T10:52:53.062Z,2.78
2022-09-13T10:55:19.533Z,2.42
2022-09-13T10:57:48.292Z,2.47
2022-09-13T11:00:32.476Z,2.67
2022-09-13T11:03:13.734Z,2.30
2022-09-13T11:05:43.284Z,2.38
2022-09-13T11:08:28.121Z,2.50
2022-09-13T11:11:23.534Z,2.30
2022-09-13T11:14:03.281Z,2.20
2022-09-13T11:17:00.012Z,2.05
2022-09-13T11:19:45.026Z,2.60
2022-09-13T11:22:27.854Z,2.28
2022-09-13T11:25:31.822Z,2.30
2022-09-13T11:28:20.082Z,2.35
2022-09-13T11:31:11.038Z,2.60
2022-09-13T11:33:55.904Z,2.72
2022-09-13T11:36:34.466Z,2.47
2022-09-13T11:39:17.288Z,2.58
2022-09-13T11:41:48.219Z,2.70
2022-09-13T11:44:36.597Z,2.35
2022-09-13T11:47:41.307Z,2.37
2022-09-13T11:50:33.855Z,3.05
2022-09-13T11:53:10.384Z,2.38
2022-09-13T11:55:47.799Z,2.25
2022-09-13T11:58:25.819Z,2.20
2022-09-13T12:00:59.206Z,2.53
2022-09-13T12:03:42.410Z,2.15
2022-09-13T12:06:43.026Z,1.40
2022-09-13T12:09:39.552Z,1.80
2022-09-13T12:12:10.707Z,1.52
2022-09-13T12:14:49.429Z,1.40
2022-09-13T12:17:28.054Z,1.13
2022-09-13T12:19:57.814Z,1.17
2022-09-13T12:22:30.989Z,1.25
2022-09-13T12:25:03.527Z,1.23
2022-09-13T12:27:56.845Z,1.00
2022-09-13T12:30:31.223Z,0.85
2022-09-13T12:32:59.189Z,0.93
2022-09-13T12:35:32.414Z,0.88
2022-09-13T12:38:38.455Z,1.08
2022-09-13T12:41:20.220Z,1.17
2022-09-13T12:43:59.852Z,1.10
2022-09-13T12:46:52.591Z,0.82
2022-09-13T12:49:44.949Z,1.13
2022-09-13T12:52:45.264Z,1.00
2022-09-13T12:55:46.103Z,1.17
2022-09-13T12:58:41.659Z,0.90
2022-09-13T13:01:30.805Z,0.70
2022-09-13T13:04:19.257Z,0.80
2022-09-13T13:06:45.712Z,0.90
2022-09-13T13:09:44.639Z,1.00
2022-09-13T13:14:57.025Z,1.17
2022-09-13T13:17:45.279Z,1.00
2022-09-13T13:20:49.716Z,1.30
2022-09-13T13:23:35.187Z,1.10
2022-09-13T13:26:20.332Z,1.10
2022-09-13T13:28:51.960Z,1.20
2022-09-13T13:31:24.830Z,1.58
2022-09-13T13:34:14.595Z,1.23
2022-09-13T13:36:41.061Z,0.90
2022-09-13T13:39:25.731Z,1.20
2022-09-13T13:42:13.167Z,1.23
2022-09-13T13:44:42.661Z,1.30
2022-09-13T13:47:09.130Z,10.77
2022-09-13T13:49:38.765Z,1.55
2022-09-13T13:52:11.970Z,1.20
2022-09-13T13:54:58.664Z,1.50
2022-09-13T13:57:31.131Z,1.27
2022-09-13T14:00:19.786Z,1.30
2022-09-13T14:02:49.176Z,1.17
2022-09-13T14:05:21.811Z,1.20
2022-09-13T14:08:23.795Z,1.08
2022-09-13T14:11:01.619Z,1.27
2022-09-13T14:13:34.232Z,1.10
2022-09-13T14:16:05.484Z,1.40
2022-09-13T14:18:44.716Z,1.30
2022-09-13T14:21:22.375Z,1.05
2022-09-13T14:23:49.538Z,1.10
2022-09-13T14:26:16.455Z,1.20
2022-09-13T14:28:43.076Z,1.33
2022-09-13T14:31:17.631Z,1.20
2022-09-13T14:33:44.224Z,1.20
2022-09-13T14:36:20.556Z,1.30
2022-09-13T14:38:55.467Z,1.08
2022-09-13T14:41:31.290Z,1.10
2022-09-13T14:44:21.034Z,1.20
2022-09-13T14:47:22.199Z,1.20
2022-09-13T14:50:14.182Z,1.40
2022-09-13T14:52:54.828Z,1.20
2022-09-13T14:55:30.202Z,1.13
2022-09-13T14:58:04.349Z,1.30
2022-09-13T15:00:35.139Z,1.27
2022-09-13T15:03:11.521Z,1.60
2022-09-13T15:05:39.483Z,1.20
2022-09-13T15:08:33.825Z,1.40
2022-09-13T15:11:02.582Z,1.65
2022-09-13T15:13:29.483Z,1.45
2022-09-13T15:15:56.170Z,1.23
2022-09-13T15:18:36.217Z,1.00
2022-09-13T15:21:14.464Z,1.10
2022-09-13T15:23:43.348Z,1.30
2022-09-13T15:26:27.655Z,1.15
2022-09-13T15:29:03.839Z,1.13
2022-09-13T15:31:32.862Z,1.38
2022-09-13T15:36:45.756Z,1.10
2022-09-13T15:39:22.192Z,1.08
2022-09-13T15:41:57.263Z,0.90
2022-09-13T15:44:24.586Z,1.00
2022-09-13T15:46:56.917Z,0.98
2022-09-13T15:49:27.345Z,0.90
2022-09-13T15:51:59.364Z,0.90
2022-09-13T15:54:36.704Z,1.00
2022-09-13T15:57:07.871Z,0.85
2022-09-13T15:59:34.641Z,0.90
2022-09-13T16:02:22.117Z,1.25
2022-09-13T16:04:49.148Z,1.63
2022-09-13T16:07:16.470Z,1.48
2022-09-13T16:09:44.557Z,1.67
2022-09-13T16:12:11.135Z,1.27
2022-09-13T16:14:37.646Z,2.08
2022-09-13T16:17:10.583Z,1.52
2022-09-13T16:19:37.199Z,1.50
2022-09-13T16:22:03.856Z,1.30
2022-09-13T16:24:31.208Z,1.50
2022-09-13T16:27:01.547Z,1.35
2022-09-13T16:29:28.622Z,1.23
2022-09-13T16:31:55.260Z,1.45
2022-09-13T16:34:21.928Z,1.58
2022-09-13T16:36:48.389Z,1.65
2022-09-13T16:39:14.897Z,1.60
2022-09-13T16:41:41.469Z,1.60
2022-09-13T16:44:08.890Z,1.50
2022-09-13T16:46:35.677Z,1.42
2022-09-13T16:49:02.219Z,1.38
2022-09-13T16:51:28.857Z,1.50
2022-09-13T16:53:55.424Z,1.60
2022-09-13T16:56:24.760Z,1.70
2022-09-13T16:58:52.479Z,1.70
2022-09-13T17:01:27.799Z,1.60
2022-09-13T17:03:55.876Z,1.60
2022-09-13T17:06:25.358Z,1.90
2022-09-13T17:09:02.985Z,1.40
2022-09-13T17:11:32.518Z,1.60
2022-09-13T17:14:00.894Z,1.50
2022-09-13T17:16:31.368Z,1.50
2022-09-13T17:19:00.335Z,1.60
2022-09-13T17:21:28.280Z,1.67
2022-09-13T17:23:55.371Z,1.55
2022-09-13T17:26:23.031Z,1.85
2022-09-13T17:28:49.601Z,1.75
2022-09-13T17:31:16.214Z,1.85
2022-09-13T17:33:42.783Z,1.80
2022-09-13T17:36:13.640Z,1.92
2022-09-13T17:38:41.208Z,1.98
2022-09-13T17:41:16.340Z,1.80
2022-09-13T17:43:43.756Z,1.70
2022-09-13T17:46:16.408Z,1.60
2022-09-13T17:48:43.934Z,2.08
2022-09-13T17:51:12.628Z,1.98
2022-09-13T17:53:41.726Z,1.90
2022-09-13T17:56:08.658Z,1.90
2022-09-13T17:58:36.277Z,1.73
2022-09-13T18:01:06.784Z,2.08
2022-09-13T18:03:33.783Z,2.20
2022-09-13T18:06:01.497Z,2.50
2022-09-13T18:08:29.831Z,2.30
2022-09-13T18:11:14.203Z,2.07
2022-09-13T18:13:42.765Z,2.38
2022-09-13T18:16:10.533Z,2.20
2022-09-13T18:18:43.095Z,2.40
2022-09-13T18:21:10.283Z,2.40
2022-09-13T18:23:36.894Z,1.95
2022-09-13T18:26:10.071Z,2.72
2022-09-13T18:28:38.198Z,2.70
2022-09-13T18:31:06.962Z,2.30
2022-09-13T18:33:33.777Z,3.22
2022-09-13T18:36:06.453Z,2.70
2022-09-13T18:38:35.452Z,3.50
2022-09-13T18:41:23.901Z,3.00
2022-09-13T18:43:55.494Z,3.00
2022-09-13T18:46:24.995Z,3.03
2022-09-13T18:51:28.056Z,3.35
2022-09-13T18:53:55.800Z,2.30
2022-09-13T18:56:26.143Z,2.70
2022-09-13T18:58:53.755Z,2.92
2022-09-13T19:01:25.990Z,2.70
2022-09-13T19:03:52.645Z,2.85
2022-09-13T19:06:31.097Z,2.28
2022-09-13T19:08:59.196Z,3.63
2022-09-13T19:11:45.761Z,3.42
2022-09-13T19:14:25.073Z,2.92
2022-09-13T19:16:54.131Z,2.47
2022-09-13T19:19:20.677Z,2.50
2022-09-13T19:21:47.448Z,2.58
2022-09-13T19:24:19.367Z,2.92
2022-09-13T19:26:48.620Z,2.80
2022-09-13T19:29:17.534Z,2.87
2022-09-13T19:31:48.183Z,2.58
2022-09-13T19:34:15.852Z,2.45
2022-09-13T19:36:44.269Z,2.47
2022-09-13T19:39:11.683Z,3.37
2022-09-13T19:41:39.263Z,3.38
2022-09-13T19:44:07.104Z,2.63
2022-09-13T19:46:40.417Z,2.70
2022-09-13T19:49:08.580Z,2.85
2022-09-13T19:51:37.593Z,3.70
2022-09-13T19:54:06.086Z,2.97
2022-09-13T19:56:35.916Z,3.43
2022-09-13T19:59:03.445Z,2.75
2022-09-13T20:01:33.730Z,2.60
2022-09-13T20:04:03.121Z,2.42
2022-09-13T20:09:01.637Z,2.28
2022-09-13T20:11:29.158Z,2.42
2022-09-13T20:13:59.266Z,3.00
2022-09-13T20:16:32.176Z,2.08
2022-09-13T20:18:58.849Z,2.45
2022-09-13T20:21:27.502Z,2.08
2022-09-13T20:23:56.118Z,2.80
2022-09-13T20:26:27.005Z,2.53
2022-09-13T20:28:57.530Z,3.67
2022-09-13T20:31:24.855Z,2.45
2022-09-13T20:34:01.421Z,2.55
2022-09-13T20:36:31.004Z,2.70
2022-09-13T20:39:03.012Z,2.88
2022-09-13T20:41:31.622Z,2.72
2022-09-13T20:44:01.786Z,2.95
2022-09-13T20:46:31.314Z,2.58
2022-09-13T20:48:58.320Z,2.20
2022-09-13T20:51:25.556Z,2.40
2022-09-13T20:53:57.343Z,2.30
2022-09-13T20:56:24.789Z,2.33
2022-09-13T20:58:57.466Z,2.20
2022-09-13T21:01:25.065Z,2.28
2022-09-13T21:03:53.864Z,2.33
2022-09-13T21:06:22.174Z,2.08
2022-09-13T21:08:50.291Z,2.13
2022-09-13T21:11:22.189Z,2.13
2022-09-13T21:13:59.224Z,1.98
2022-09-13T21:16:31.867Z,2.13
2022-09-13T21:19:00.762Z,2.20
2022-09-13T21:21:30.135Z,2.28
2022-09-13T21:26:26.917Z,2.00
2022-09-13T21:31:25.179Z,2.13
2022-09-13T21:33:57.788Z,1.92
2022-09-13T21:36:25.826Z,2.47
2022-09-13T21:38:54.422Z,2.25
2022-09-13T21:41:22.486Z,2.17
2022-09-13T21:43:49.519Z,2.15
2022-09-13T21:46:18.986Z,2.00
2022-09-13T21:48:48.451Z,2.10
2022-09-13T21:51:22.580Z,2.50
2022-09-13T21:53:57.550Z,2.20
2022-09-13T21:56:26.735Z,2.45
2022-09-13T21:59:01.635Z,3.05
2022-09-13T22:01:34.496Z,2.70
2022-09-13T22:04:02.120Z,2.53
2022-09-13T22:06:33.542Z,2.10
2022-09-13T22:09:03.179Z,2.33
2022-09-13T22:11:32.201Z,2.47
2022-09-13T22:13:59.723Z,2.30
2022-09-13T22:16:31.927Z,3.30
2022-09-13T22:19:05.439Z,2.72
2022-09-13T22:21:38.129Z,2.95
2022-09-13T22:24:05.827Z,2.60
2022-09-13T22:26:35.239Z,2.50
2022-09-13T22:31:33.230Z,2.20
2022-09-13T22:34:01.444Z,2.30
2022-09-13T22:36:28.588Z,2.13
2022-09-13T22:38:55.525Z,2.40
2022-09-13T22:41:23.347Z,2.00
2022-09-13T22:43:50.202Z,2.38
2022-09-13T22:46:22.621Z,2.28
2022-09-13T22:48:49.684Z,2.30
2022-09-13T22:51:18.288Z,2.15
2022-09-13T22:53:47.316Z,1.80
2022-09-13T22:56:15.211Z,1.80
2022-09-13T22:58:42.231Z,2.45
2022-09-13T23:01:11.483Z,2.00
2022-09-13T23:03:39.980Z,1.80
2022-09-13T23:06:16.118Z,2.23
2022-09-13T23:08:42.727Z,1.75
2022-09-13T23:11:17.859Z,1.60
2022-09-13T23:13:46.920Z,2.33
2022-09-13T23:16:25.540Z,2.00
2022-09-13T23:18:53.440Z,2.15
2022-09-13T23:21:21.740Z,2.80
2022-09-13T23:23:48.714Z,2.50
2022-09-13T23:26:18.268Z,2.33
2022-09-13T23:28:46.670Z,2.60
2022-09-13T23:31:15.393Z,2.45
2022-09-13T23:33:44.479Z,2.42
2022-09-13T23:36:12.968Z,2.50
2022-09-13T23:38:41.209Z,2.30
2022-09-13T23:41:07.808Z,2.42
2022-09-13T23:43:34.594Z,2.22
2022-09-13T23:46:01.219Z,2.40
2022-09-13T23:48:28.154Z,2.28
2022-09-13T23:51:07.128Z,2.97
2022-09-13T23:53:35.365Z,2.50
